SWR92W LSZH-EDDH
Flight info
| Callsign | SWR92W |
|---|---|
| Flight time | N/A |
| Altitude | 22000 |
| Route | DEGES Z1 ETAGO Z3 LBU/N0451F300 N851 RIMKI/N0410F240 N851 OSBIT P605 NOLGO NOLGO6A |
| Aircraft | A21N/M-SDE2E3FGHIRWXY/LB1 |
Departure
| Time | 2026-05-01 08:39 |
|---|---|
| Airport | Zürich Airport (LSZH) |
Arrival
| Time | N/A |
|---|---|
| Airport | Hamburg Helmut Schmidt Airport (EDDH) |
| Time | Latitude | Longitude | Altitude | Speed | Heading |
|---|---|---|---|---|---|
| 2026-05-01 08:16 | 47.45350 | 8.55701 | 1415 ft | 0 kts | 6° |
| 2026-05-01 08:33 | 47.45354 | 8.55719 | 1419 ft | 4 kts | 105° |
| 2026-05-01 08:33 | 47.45324 | 8.55713 | 1417 ft | 5 kts | 200° |
| 2026-05-01 08:34 | 47.45288 | 8.55688 | 1416 ft | 7 kts | 219° |
| 2026-05-01 08:34 | 47.45282 | 8.55595 | 1413 ft | 11 kts | 299° |
| 2026-05-01 08:34 | 47.45349 | 8.55531 | 1414 ft | 13 kts | 331° |
| 2026-05-01 08:34 | 47.45432 | 8.55472 | 1413 ft | 14 kts | 334° |
| 2026-05-01 08:35 | 47.45520 | 8.55411 | 1415 ft | 15 kts | 335° |
| 2026-05-01 08:35 | 47.45615 | 8.55347 | 1408 ft | 15 kts | 340° |
| 2026-05-01 08:35 | 47.45669 | 8.55438 | 1406 ft | 16 kts | 97° |
| 2026-05-01 08:35 | 47.45654 | 8.55610 | 1409 ft | 18 kts | 86° |
| 2026-05-01 08:36 | 47.45645 | 8.55799 | 1414 ft | 19 kts | 97° |
| 2026-05-01 08:36 | 47.45628 | 8.56003 | 1415 ft | 21 kts | 95° |
| 2026-05-01 08:36 | 47.45613 | 8.56219 | 1417 ft | 22 kts | 96° |
| 2026-05-01 08:36 | 47.45598 | 8.56447 | 1421 ft | 23 kts | 96° |
| 2026-05-01 08:37 | 47.45580 | 8.56689 | 1424 ft | 24 kts | 96° |
| 2026-05-01 08:37 | 47.45564 | 8.56911 | 1426 ft | 14 kts | 96° |
| 2026-05-01 08:37 | 47.45610 | 8.57023 | 1430 ft | 16 kts | 12° |
| 2026-05-01 08:37 | 47.45664 | 8.57001 | 1430 ft | 6 kts | 284° |
| 2026-05-01 08:38 | 47.45667 | 8.56948 | 1429 ft | 6 kts | 276° |
| 2026-05-01 08:38 | 47.45668 | 8.56927 | 1429 ft | 0 kts | 276° |
| 2026-05-01 08:38 | 47.45677 | 8.56794 | 1426 ft | 44 kts | 276° |
| 2026-05-01 08:38 | 47.45738 | 8.55949 | 1416 ft | 119 kts | 276° |
| 2026-05-01 08:39 | 47.45844 | 8.54458 | 1452 ft | 161 kts | 275° |
| 2026-05-01 08:39 | 47.45939 | 8.52809 | 2026 ft | 162 kts | 277° |